Time;durP1;ratioP1;P1;durP2;ratioP2;P2;SDS_P1;SDS_P2;PMS_P1;PMS_P2;Temp;Humidity;BMP_temperature;BMP_pressure;BME280_temperature;BME280_humidity;BME280_pressure;Samples;Min_cycle;Max_cycle;Signal;HPM_P1;HPM_P2
2022/05/10 00:00:38;;;;;;;4.20;3.80;;;;;;;;;;4990049;28;20876;-64
2022/05/10 00:03:10;;;;;;;5.13;4.60;;;;;;;;;;5004950;28;20227;-64
2022/05/10 00:05:44;;;;;;;4.27;3.87;;;;;;;;;;4988973;28;20255;-65
2022/05/10 00:08:16;;;;;;;4.50;4.10;;;;;;;;;;5005763;28;20223;-64
2022/05/10 00:10:46;;;;;;;4.73;4.33;;;;;;;;;;4991295;28;20220;-65
2022/05/10 00:13:15;;;;;;;4.83;4.13;;;;;;;;;;5010410;28;20563;-65
2022/05/10 00:15:47;;;;;;;4.57;4.17;;;;;;;;;;5006605;28;20293;-64
2022/05/10 00:18:19;;;;;;;4.47;4.07;;;;;;;;;;5003370;28;20648;-64
2022/05/10 00:20:48;;;;;;;6.67;4.93;;;;;;;;;;4975114;28;20200;-65
2022/05/10 00:23:18;;;;;;;4.93;4.30;;;;;;;;;;5007603;28;20613;-64
2022/05/10 00:25:50;;;;;;;6.03;4.40;;;;;;;;;;5010972;28;20220;-64
2022/05/10 00:28:22;;;;;;;4.97;4.47;;;;;;;;;;5001920;28;20222;-64
2022/05/10 00:30:50;;;;;;;5.17;4.67;;;;;;;;;;5008036;28;20204;-64
2022/05/10 00:33:22;;;;;;;5.03;4.60;;;;;;;;;;4989869;28;20192;-65
2022/05/10 00:35:53;;;;;;;5.23;4.60;;;;;;;;;;5000102;28;20195;-65
2022/05/10 00:38:31;;;;;;;4.73;4.33;;;;;;;;;;4987692;28;20195;-65
2022/05/10 00:41:03;;;;;;;4.73;4.20;;;;;;;;;;5008499;28;20258;-65
2022/05/10 00:43:40;;;;;;;6.73;4.37;;;;;;;;;;4990054;28;20226;-65
2022/05/10 00:46:23;;;;;;;5.03;4.43;;;;;;;;;;4988442;28;20192;-65
2022/05/10 00:49:00;;;;;;;4.90;4.50;;;;;;;;;;5012302;28;20242;-64
2022/05/10 00:51:49;;;;;;;5.90;4.73;;;;;;;;;;5004819;28;20219;-65
2022/05/10 00:54:21;;;;;;;5.70;4.97;;;;;;;;;;5018520;28;20681;-65
2022/05/10 00:57:13;;;;;;;5.00;4.53;;;;;;;;;;5012677;28;20204;-64
2022/05/10 00:59:53;;;;;;;5.10;4.70;;;;;;;;;;5015897;28;20405;-64
2022/05/10 01:02:50;;;;;;;4.83;4.43;;;;;;;;;;5005069;28;20227;-64
2022/05/10 01:05:26;;;;;;;5.40;4.90;;;;;;;;;;4995673;28;20661;-64
2022/05/10 01:08:15;;;;;;;6.70;5.17;;;;;;;;;;5006816;28;20368;-65
2022/05/10 01:11:07;;;;;;;6.33;5.40;;;;;;;;;;5006078;28;20227;-65
2022/05/10 01:13:47;;;;;;;5.83;5.23;;;;;;;;;;5006725;28;20218;-65
2022/05/10 01:16:16;;;;;;;6.67;5.40;;;;;;;;;;5006126;28;20222;-65
2022/05/10 01:18:44;;;;;;;5.47;4.50;;;;;;;;;;5008367;28;20179;-65
2022/05/10 01:21:14;;;;;;;5.47;4.97;;;;;;;;;;5007036;28;20416;-65
2022/05/10 01:24:10;;;;;;;5.67;5.17;;;;;;;;;;5011257;28;20195;-65
2022/05/10 01:27:00;;;;;;;5.50;5.00;;;;;;;;;;4976224;28;20219;-65
2022/05/10 01:29:40;;;;;;;5.73;5.20;;;;;;;;;;5007379;28;20521;-65
2022/05/10 01:35:00;;;;;;;6.10;5.27;;;;;;;;;;5009125;28;20271;-65
2022/05/10 01:37:30;;;;;;;5.30;4.80;;;;;;;;;;5013235;28;20190;-65
2022/05/10 01:39:59;;;;;;;5.37;4.83;;;;;;;;;;5008307;28;20250;-64
2022/05/10 01:42:58;;;;;;;4.90;4.50;;;;;;;;;;5005679;28;20199;-65
2022/05/10 01:46:01;;;;;;;5.77;5.17;;;;;;;;;;4941808;29;20217;-65
2022/05/10 01:48:46;;;;;;;5.43;4.60;;;;;;;;;;4910407;29;20290;-65
2022/05/10 01:51:21;;;;;;;4.77;4.37;;;;;;;;;;4905636;29;20235;-65
2022/05/10 01:53:55;;;;;;;5.17;4.67;;;;;;;;;;4912133;29;20202;-65
2022/05/10 01:56:26;;;;;;;5.50;5.00;;;;;;;;;;4922704;29;20210;-65
2022/05/10 01:58:56;;;;;;;5.00;4.60;;;;;;;;;;4947306;28;20221;-64
2022/05/10 02:01:28;;;;;;;5.50;4.70;;;;;;;;;;4949779;28;20746;-64
2022/05/10 02:03:58;;;;;;;5.83;4.80;;;;;;;;;;4940491;28;20213;-64
2022/05/10 02:06:42;;;;;;;5.63;5.10;;;;;;;;;;4949494;28;20233;-64
2022/05/10 02:09:28;;;;;;;4.70;4.30;;;;;;;;;;4970137;28;20231;-64
2022/05/10 02:12:04;;;;;;;6.27;5.40;;;;;;;;;;5003761;28;20227;-64
2022/05/10 02:14:50;;;;;;;4.60;4.20;;;;;;;;;;5006621;28;20222;-64
2022/05/10 02:17:24;;;;;;;5.50;5.00;;;;;;;;;;5012661;28;20191;-65
2022/05/10 02:19:58;;;;;;;4.97;4.57;;;;;;;;;;5021609;28;20269;-64
2022/05/10 02:22:29;;;;;;;6.00;5.00;;;;;;;;;;5012229;28;20257;-65
2022/05/10 02:25:00;;;;;;;5.47;4.97;;;;;;;;;;5015089;28;20207;-65
2022/05/10 02:27:47;;;;;;;5.50;5.00;;;;;;;;;;5012649;28;20297;-64
2022/05/10 02:30:18;;;;;;;5.27;4.77;;;;;;;;;;5009288;28;20437;-65
2022/05/10 02:33:06;;;;;;;5.20;4.80;;;;;;;;;;5012906;28;20283;-64
2022/05/10 02:35:57;;;;;;;5.30;4.80;;;;;;;;;;5024566;28;20202;-64
2022/05/10 02:38:25;;;;;;;5.57;5.07;;;;;;;;;;5010113;28;20625;-65
2022/05/10 02:40:54;;;;;;;5.30;4.80;;;;;;;;;;4997683;28;20210;-64
2022/05/10 02:43:36;;;;;;;5.30;4.90;;;;;;;;;;5012583;28;20663;-64
2022/05/10 02:46:04;;;;;;;4.70;4.30;;;;;;;;;;5008498;28;20222;-64
2022/05/10 02:48:33;;;;;;;6.07;5.07;;;;;;;;;;5012158;28;20921;-64
2022/05/10 02:51:00;;;;;;;5.73;4.70;;;;;;;;;;5018259;28;20235;-64
2022/05/10 02:53:28;;;;;;;5.37;4.80;;;;;;;;;;4994231;28;20277;-64
2022/05/10 02:55:58;;;;;;;4.47;4.07;;;;;;;;;;5024680;28;20602;-64
2022/05/10 02:58:29;;;;;;;5.53;5.03;;;;;;;;;;5012410;28;20199;-64
2022/05/10 03:01:01;;;;;;;5.50;5.00;;;;;;;;;;5022314;28;20253;-65
2022/05/10 03:03:29;;;;;;;4.90;4.50;;;;;;;;;;5009465;28;20203;-64
2022/05/10 03:05:56;;;;;;;5.13;4.47;;;;;;;;;;5023808;28;20277;-64
2022/05/10 03:08:23;;;;;;;5.13;4.73;;;;;;;;;;5011368;28;20200;-64
2022/05/10 03:10:52;;;;;;;4.77;4.37;;;;;;;;;;5012336;28;20223;-64
2022/05/10 03:13:19;;;;;;;4.83;4.43;;;;;;;;;;5012329;28;20246;-64
2022/05/10 03:15:47;;;;;;;5.77;4.60;;;;;;;;;;5011099;28;20261;-64
2022/05/10 03:18:14;;;;;;;5.27;4.77;;;;;;;;;;5009144;28;20295;-64
2022/05/10 03:20:41;;;;;;;5.70;4.30;;;;;;;;;;5015611;28;20196;-64
2022/05/10 03:23:08;;;;;;;4.80;4.30;;;;;;;;;;5012030;28;20282;-65
2022/05/10 03:25:35;;;;;;;5.10;4.60;;;;;;;;;;5022913;28;20264;-65
2022/05/10 03:28:03;;;;;;;4.97;4.47;;;;;;;;;;5003393;28;20246;-65
2022/05/10 03:30:31;;;;;;;4.97;4.47;;;;;;;;;;5014922;28;20223;-65
2022/05/10 03:32:58;;;;;;;5.07;4.63;;;;;;;;;;5008108;28;20203;-65
2022/05/10 03:35:27;;;;;;;4.40;4.00;;;;;;;;;;5015149;28;20203;-64
2022/05/10 03:37:54;;;;;;;5.00;4.57;;;;;;;;;;5010899;28;20513;-64
2022/05/10 03:40:22;;;;;;;4.90;4.50;;;;;;;;;;5015476;28;20207;-65
2022/05/10 03:42:50;;;;;;;5.77;5.13;;;;;;;;;;5008124;28;20202;-64
2022/05/10 03:45:18;;;;;;;4.77;4.37;;;;;;;;;;5011700;28;20253;-65
2022/05/10 03:47:46;;;;;;;5.90;5.00;;;;;;;;;;5009283;28;20278;-64
2022/05/10 03:50:14;;;;;;;5.23;4.70;;;;;;;;;;5005132;28;20250;-64
2022/05/10 03:52:42;;;;;;;5.10;4.57;;;;;;;;;;5008810;28;20208;-64
2022/05/10 03:55:19;;;;;;;5.03;4.57;;;;;;;;;;5012707;28;20200;-63
2022/05/10 03:58:04;;;;;;;4.70;4.30;;;;;;;;;;4995361;28;20731;-63
2022/05/10 04:00:37;;;;;;;5.00;4.50;;;;;;;;;;5012699;28;20239;-62
2022/05/10 04:03:27;;;;;;;5.00;4.60;;;;;;;;;;5004472;28;20569;-64
2022/05/10 04:05:56;;;;;;;5.13;4.73;;;;;;;;;;5010544;28;20247;-63
2022/05/10 04:08:27;;;;;;;5.27;4.80;;;;;;;;;;4996092;28;20271;-62
2022/05/10 04:11:03;;;;;;;4.70;4.30;;;;;;;;;;5013979;28;20218;-64
2022/05/10 04:13:40;;;;;;;5.50;5.00;;;;;;;;;;5007624;28;20854;-64
2022/05/10 04:16:11;;;;;;;4.70;4.30;;;;;;;;;;5003558;28;20211;-64
2022/05/10 04:18:46;;;;;;;5.57;5.07;;;;;;;;;;5002046;28;20633;-64
2022/05/10 04:21:17;;;;;;;5.07;4.67;;;;;;;;;;5016923;28;20226;-64
2022/05/10 04:23:46;;;;;;;5.97;4.87;;;;;;;;;;5008575;28;20235;-64
2022/05/10 04:26:15;;;;;;;4.80;4.30;;;;;;;;;;5007277;28;20328;-63
2022/05/10 04:28:43;;;;;;;5.53;5.00;;;;;;;;;;5007489;28;20801;-63
2022/05/10 04:31:10;;;;;;;5.10;4.70;;;;;;;;;;5008467;28;20208;-63
2022/05/10 04:33:37;;;;;;;4.40;4.10;;;;;;;;;;5007342;28;20644;-63
2022/05/10 04:36:05;;;;;;;4.77;4.37;;;;;;;;;;5013821;28;20199;-63
2022/05/10 04:38:35;;;;;;;5.17;4.77;;;;;;;;;;5005300;28;20581;-62
2022/05/10 04:43:48;;;;;;;5.17;4.67;;;;;;;;;;5007153;28;20204;-64
2022/05/10 04:46:16;;;;;;;5.00;4.60;;;;;;;;;;5015684;28;20199;-63
2022/05/10 04:48:43;;;;;;;6.13;4.40;;;;;;;;;;4990148;28;20196;-63
2022/05/10 04:51:11;;;;;;;4.67;4.27;;;;;;;;;;5011656;28;20243;-63
2022/05/10 04:53:38;;;;;;;5.03;4.50;;;;;;;;;;5008255;28;20254;-63
2022/05/10 04:56:05;;;;;;;4.67;4.33;;;;;;;;;;5009887;28;20212;-64
2022/05/10 04:58:33;;;;;;;5.30;4.80;;;;;;;;;;5007120;28;20250;-64
2022/05/10 05:01:05;;;;;;;4.60;4.20;;;;;;;;;;5014160;28;20641;-63
2022/05/10 05:03:37;;;;;;;4.70;4.30;;;;;;;;;;5003532;28;20207;-63
2022/05/10 05:06:07;;;;;;;4.90;4.50;;;;;;;;;;5014042;28;20227;-64
2022/05/10 05:08:38;;;;;;;5.30;4.80;;;;;;;;;;5005392;28;20206;-64
2022/05/10 05:11:07;;;;;;;5.20;4.70;;;;;;;;;;5000605;28;20649;-64
2022/05/10 05:13:36;;;;;;;4.90;4.50;;;;;;;;;;4989677;28;20203;-64
2022/05/10 05:16:03;;;;;;;4.67;4.20;;;;;;;;;;4994648;28;20203;-64
2022/05/10 05:18:31;;;;;;;4.90;4.50;;;;;;;;;;5009405;28;20699;-64
2022/05/10 05:20:58;;;;;;;4.53;4.13;;;;;;;;;;5010855;28;20207;-64
2022/05/10 05:23:25;;;;;;;4.87;4.47;;;;;;;;;;5006928;28;20208;-63
2022/05/10 05:25:53;;;;;;;5.60;4.80;;;;;;;;;;5011861;28;20657;-64
2022/05/10 05:28:20;;;;;;;6.63;5.27;;;;;;;;;;5002796;28;20641;-64
2022/05/10 05:30:47;;;;;;;6.07;4.87;;;;;;;;;;5008791;28;20298;-64
2022/05/10 05:33:14;;;;;;;5.73;5.10;;;;;;;;;;5010946;28;20219;-64
2022/05/10 05:35:42;;;;;;;7.60;5.60;;;;;;;;;;5012856;28;20206;-63
2022/05/10 05:38:09;;;;;;;5.70;5.00;;;;;;;;;;5002831;28;20234;-63
2022/05/10 05:40:38;;;;;;;6.73;4.83;;;;;;;;;;5013923;28;20211;-64
2022/05/10 05:43:15;;;;;;;5.70;5.10;;;;;;;;;;4987080;28;20196;-64
2022/05/10 05:45:47;;;;;;;5.67;5.10;;;;;;;;;;4991032;28;20223;-64
2022/05/10 05:48:18;;;;;;;6.70;5.23;;;;;;;;;;4991470;28;20231;-65
2022/05/10 05:50:50;;;;;;;5.80;4.93;;;;;;;;;;4986294;28;20257;-64
2022/05/10 05:53:20;;;;;;;5.57;4.90;;;;;;;;;;5003836;28;20568;-64
2022/05/10 05:55:50;;;;;;;5.93;5.37;;;;;;;;;;5005429;28;20200;-63
2022/05/10 05:58:23;;;;;;;5.90;5.30;;;;;;;;;;4999160;28;20212;-63
2022/05/10 06:00:53;;;;;;;7.93;5.63;;;;;;;;;;5006031;28;20312;-64
2022/05/10 06:03:24;;;;;;;7.23;5.17;;;;;;;;;;5000514;28;20212;-64
2022/05/10 06:05:56;;;;;;;6.30;5.70;;;;;;;;;;5016176;28;20684;-64
2022/05/10 06:08:26;;;;;;;6.10;5.50;;;;;;;;;;4995554;28;20650;-64
2022/05/10 06:10:59;;;;;;;6.20;5.60;;;;;;;;;;5014325;28;20238;-65
2022/05/10 06:13:36;;;;;;;7.53;5.60;;;;;;;;;;5002354;28;20191;-64
2022/05/10 06:16:06;;;;;;;6.33;5.20;;;;;;;;;;5000063;28;20270;-65
2022/05/10 06:18:36;;;;;;;12.83;5.33;;;;;;;;;;4987260;28;20210;-64
2022/05/10 06:21:06;;;;;;;5.77;5.00;;;;;;;;;;4987759;28;20215;-62
2022/05/10 06:23:33;;;;;;;6.63;5.43;;;;;;;;;;4997751;28;20208;-63
2022/05/10 06:26:04;;;;;;;7.03;5.63;;;;;;;;;;4985911;28;20219;-64
2022/05/10 06:28:36;;;;;;;12.53;5.70;;;;;;;;;;4994595;28;20206;-64
2022/05/10 06:31:09;;;;;;;8.67;5.83;;;;;;;;;;5005525;28;20766;-65
2022/05/10 06:33:37;;;;;;;9.20;5.93;;;;;;;;;;5007567;28;20225;-65
2022/05/10 06:36:04;;;;;;;12.20;5.93;;;;;;;;;;5007378;28;20218;-65
2022/05/10 06:38:34;;;;;;;7.90;5.27;;;;;;;;;;5012968;28;20223;-64
2022/05/10 06:41:03;;;;;;;10.70;5.53;;;;;;;;;;5005150;28;20254;-64
2022/05/10 06:43:35;;;;;;;9.10;5.87;;;;;;;;;;5006978;28;20203;-64
2022/05/10 06:46:16;;;;;;;8.23;6.07;;;;;;;;;;5013087;28;20200;-63
2022/05/10 06:48:46;;;;;;;8.03;5.83;;;;;;;;;;5004606;28;20204;-63
2022/05/10 06:51:15;;;;;;;9.03;5.83;;;;;;;;;;5003466;28;20226;-63
2022/05/10 06:53:44;;;;;;;8.60;5.27;;;;;;;;;;5013749;28;20519;-64
2022/05/10 06:56:12;;;;;;;9.30;6.00;;;;;;;;;;5008431;28;20290;-63
2022/05/10 06:58:39;;;;;;;9.70;6.03;;;;;;;;;;4997145;28;20592;-63
2022/05/10 07:01:11;;;;;;;8.60;5.77;;;;;;;;;;5007062;28;20898;-62
2022/05/10 07:03:45;;;;;;;9.00;5.40;;;;;;;;;;5016792;28;20778;-63
2022/05/10 07:06:18;;;;;;;9.57;5.90;;;;;;;;;;5005742;28;20608;-62
2022/05/10 07:08:52;;;;;;;7.93;5.47;;;;;;;;;;4999932;28;20184;-62
2022/05/10 07:11:26;;;;;;;8.97;6.03;;;;;;;;;;5013987;28;20214;-63
2022/05/10 07:13:53;;;;;;;8.57;5.93;;;;;;;;;;5011484;28;20200;-64
2022/05/10 07:16:20;;;;;;;9.10;5.40;;;;;;;;;;5007177;28;20266;-64
2022/05/10 07:18:48;;;;;;;5.97;5.10;;;;;;;;;;5015382;28;20184;-63
2022/05/10 07:21:15;;;;;;;6.93;5.43;;;;;;;;;;5009455;28;20203;-64
2022/05/10 07:23:42;;;;;;;9.63;5.30;;;;;;;;;;5014604;28;20258;-65
2022/05/10 07:26:09;;;;;;;7.80;5.20;;;;;;;;;;5005344;28;20618;-64
2022/05/10 07:28:36;;;;;;;9.53;5.30;;;;;;;;;;5008638;28;20199;-63
2022/05/10 07:31:03;;;;;;;7.13;5.30;;;;;;;;;;5009373;28;20208;-65
2022/05/10 07:33:31;;;;;;;7.03;4.90;;;;;;;;;;5015022;28;20535;-63
2022/05/10 07:38:54;;;;;;;6.73;4.53;;;;;;;;;;5009973;28;20299;-64
2022/05/10 07:41:26;;;;;;;5.67;4.60;;;;;;;;;;5009393;28;20254;-62
2022/05/10 07:43:56;;;;;;;6.53;4.77;;;;;;;;;;4989663;28;20218;-63
2022/05/10 07:46:27;;;;;;;7.37;5.10;;;;;;;;;;5008780;28;20595;-65
2022/05/10 07:49:00;;;;;;;5.03;4.30;;;;;;;;;;5009633;28;20199;-64
2022/05/10 07:51:29;;;;;;;6.13;4.30;;;;;;;;;;5004680;28;20236;-64
2022/05/10 07:54:12;;;;;;;5.63;5.03;;;;;;;;;;5007912;28;20241;-63
2022/05/10 07:56:43;;;;;;;6.73;4.30;;;;;;;;;;5013690;28;20206;-64
2022/05/10 07:59:13;;;;;;;4.67;4.00;;;;;;;;;;5011086;28;20199;-64
2022/05/10 08:01:41;;;;;;;10.83;4.40;;;;;;;;;;5008061;28;20711;-65
2022/05/10 08:04:13;;;;;;;5.90;4.50;;;;;;;;;;5004993;28;20211;-65
2022/05/10 08:06:46;;;;;;;4.33;3.90;;;;;;;;;;5006432;28;20232;-64
2022/05/10 08:09:14;;;;;;;7.93;3.90;;;;;;;;;;5008796;28;20254;-64
2022/05/10 08:11:46;;;;;;;5.13;4.20;;;;;;;;;;5010085;28;20657;-62
2022/05/10 08:14:17;;;;;;;5.70;3.97;;;;;;;;;;5004003;28;20703;-62
2022/05/10 08:16:49;;;;;;;4.80;4.40;;;;;;;;;;5010043;28;20212;-65
2022/05/10 08:19:20;;;;;;;5.23;4.20;;;;;;;;;;5016407;28;20196;-65
2022/05/10 08:21:52;;;;;;;7.03;4.17;;;;;;;;;;5007470;28;20212;-62
2022/05/10 08:24:20;;;;;;;5.07;4.03;;;;;;;;;;5009055;28;20215;-62
2022/05/10 08:26:52;;;;;;;5.50;3.57;;;;;;;;;;4994461;28;20223;-62
2022/05/10 08:29:24;;;;;;;6.17;4.10;;;;;;;;;;5008973;28;20208;-62
2022/05/10 08:31:55;;;;;;;6.27;3.90;;;;;;;;;;5010219;28;20842;-62
2022/05/10 08:34:25;;;;;;;4.83;4.30;;;;;;;;;;5010380;28;20298;-63
2022/05/10 08:36:56;;;;;;;5.63;3.40;;;;;;;;;;5008040;28;20613;-63
2022/05/10 08:39:29;;;;;;;6.80;3.80;;;;;;;;;;5006788;28;20204;-62
2022/05/10 08:42:09;;;;;;;5.70;3.87;;;;;;;;;;5006820;28;20500;-64
2022/05/10 08:44:40;;;;;;;4.83;3.60;;;;;;;;;;5013218;28;20196;-64
2022/05/10 08:47:10;;;;;;;5.07;3.77;;;;;;;;;;5008460;28;20204;-62
2022/05/10 08:50:00;;;;;;;4.13;3.40;;;;;;;;;;5006683;28;21433;-63
2022/05/10 08:52:53;;;;;;;3.90;3.23;;;;;;;;;;5007169;28;20203;-64
2022/05/10 08:55:29;;;;;;;6.27;2.90;;;;;;;;;;5017235;28;20230;-65
2022/05/10 08:58:07;;;;;;;5.00;3.57;;;;;;;;;;5006485;28;20207;-64
2022/05/10 09:00:48;;;;;;;4.80;3.77;;;;;;;;;;5005236;28;20204;-64
2022/05/10 09:03:27;;;;;;;7.77;3.67;;;;;;;;;;5004253;28;20235;-64
2022/05/10 09:05:58;;;;;;;6.70;3.40;;;;;;;;;;5015760;28;20337;-64
2022/05/10 09:08:36;;;;;;;5.93;3.50;;;;;;;;;;4998942;28;20182;-64
2022/05/10 09:11:04;;;;;;;4.83;3.43;;;;;;;;;;5010474;28;20215;-62
2022/05/10 09:13:34;;;;;;;4.03;3.33;;;;;;;;;;5010307;28;20195;-61
2022/05/10 09:16:09;;;;;;;4.57;3.40;;;;;;;;;;5003060;28;20207;-62
2022/05/10 09:18:50;;;;;;;5.57;3.87;;;;;;;;;;4993616;28;20198;-62
2022/05/10 09:21:38;;;;;;;5.17;3.40;;;;;;;;;;5007675;28;20669;-63
2022/05/10 09:24:26;;;;;;;5.57;3.80;;;;;;;;;;5007210;28;20668;-66
2022/05/10 09:26:56;;;;;;;4.37;3.53;;;;;;;;;;5010608;28;20224;-66
2022/05/10 09:29:40;;;;;;;6.83;3.40;;;;;;;;;;5008312;28;20192;-66
2022/05/10 09:35:14;;;;;;;6.67;3.33;;;;;;;;;;5011400;28;20222;-63
2022/05/10 09:37:59;;;;;;;5.27;2.70;;;;;;;;;;4989182;28;20188;-64
2022/05/10 09:40:26;;;;;;;4.60;3.30;;;;;;;;;;5003613;28;20207;-64
2022/05/10 09:43:10;;;;;;;4.50;3.43;;;;;;;;;;5004644;28;20220;-63
2022/05/10 09:45:38;;;;;;;4.30;3.27;;;;;;;;;;5006626;28;20214;-64
2022/05/10 09:48:08;;;;;;;4.70;3.40;;;;;;;;;;5004780;28;20577;-63
2022/05/10 09:50:36;;;;;;;4.43;3.13;;;;;;;;;;5013999;28;20216;-65
2022/05/10 09:53:08;;;;;;;4.30;2.90;;;;;;;;;;5008865;28;20527;-64
2022/05/10 09:55:36;;;;;;;5.17;3.20;;;;;;;;;;5009050;28;20199;-64
2022/05/10 09:58:15;;;;;;;5.33;3.27;;;;;;;;;;5004103;28;20245;-64
2022/05/10 10:00:52;;;;;;;3.67;3.13;;;;;;;;;;5017332;28;20893;-65
2022/05/10 10:03:28;;;;;;;3.50;2.90;;;;;;;;;;5000840;28;20716;-64
2022/05/10 10:05:56;;;;;;;3.93;2.93;;;;;;;;;;5012094;28;20297;-64
2022/05/10 10:08:40;;;;;;;4.00;3.30;;;;;;;;;;5002903;28;20257;-64
2022/05/10 10:11:24;;;;;;;3.47;2.97;;;;;;;;;;5008519;28;20265;-64
2022/05/10 10:13:59;;;;;;;3.93;3.17;;;;;;;;;;5005596;28;21450;-64
2022/05/10 10:16:30;;;;;;;2.97;2.70;;;;;;;;;;4996100;28;20672;-64
2022/05/10 10:19:00;;;;;;;3.27;2.90;;;;;;;;;;5005791;28;20207;-65
2022/05/10 10:21:38;;;;;;;4.63;2.93;;;;;;;;;;5006259;28;20215;-64
2022/05/10 10:24:08;;;;;;;3.33;2.60;;;;;;;;;;5004188;28;20211;-65
2022/05/10 10:26:44;;;;;;;3.53;2.93;;;;;;;;;;5010441;28;20305;-64
2022/05/10 10:29:51;;;;;;;2.73;2.50;;;;;;;;;;4991874;28;20200;-64
2022/05/10 10:32:33;;;;;;;3.10;2.80;;;;;;;;;;4962381;28;20723;-64
2022/05/10 10:35:26;;;;;;;3.07;2.73;;;;;;;;;;5007600;28;20214;-64
2022/05/10 10:38:21;;;;;;;2.73;2.53;;;;;;;;;;5003633;28;20230;-64
2022/05/10 10:40:56;;;;;;;2.90;2.70;;;;;;;;;;4988382;28;20211;-64
2022/05/10 10:43:44;;;;;;;3.43;2.83;;;;;;;;;;5010658;28;20215;-64
2022/05/10 10:46:24;;;;;;;6.87;3.33;;;;;;;;;;5008668;28;20203;-64
2022/05/10 10:48:54;;;;;;;6.40;3.60;;;;;;;;;;5008327;28;20206;-65
2022/05/10 10:51:23;;;;;;;7.60;3.00;;;;;;;;;;4986767;28;20429;-64
2022/05/10 10:53:50;;;;;;;4.33;3.10;;;;;;;;;;5006508;28;20195;-63
2022/05/10 10:56:24;;;;;;;4.97;3.10;;;;;;;;;;5012980;28;20483;-65
2022/05/10 10:59:10;;;;;;;3.33;2.67;;;;;;;;;;5009008;28;20218;-64
2022/05/10 11:01:56;;;;;;;2.93;2.73;;;;;;;;;;5015833;28;20203;-62
2022/05/10 11:04:25;;;;;;;3.37;2.70;;;;;;;;;;5003042;28;20564;-64
2022/05/10 11:06:53;;;;;;;4.63;2.80;;;;;;;;;;5008527;28;20231;-65
2022/05/10 11:09:39;;;;;;;5.60;2.60;;;;;;;;;;5007948;28;20200;-63
2022/05/10 11:12:25;;;;;;;3.17;2.33;;;;;;;;;;5007631;28;20232;-64
2022/05/10 11:14:57;;;;;;;2.70;2.50;;;;;;;;;;5002551;28;20211;-64
2022/05/10 11:17:29;;;;;;;3.23;2.93;;;;;;;;;;5007121;28;20222;-63
2022/05/10 11:20:13;;;;;;;4.50;2.80;;;;;;;;;;5005290;28;20211;-63
2022/05/10 11:22:51;;;;;;;3.97;2.97;;;;;;;;;;5004161;28;20218;-65
2022/05/10 11:25:41;;;;;;;2.77;2.50;;;;;;;;;;5007027;28;20207;-62
2022/05/10 11:28:25;;;;;;;3.60;2.40;;;;;;;;;;5000305;28;20633;-63
2022/05/10 11:31:13;;;;;;;2.83;2.63;;;;;;;;;;5005980;28;20199;-64
2022/05/10 11:33:59;;;;;;;4.77;2.77;;;;;;;;;;5010383;28;20562;-64
2022/05/10 11:36:41;;;;;;;3.30;2.50;;;;;;;;;;4991877;28;20742;-65
2022/05/10 11:39:27;;;;;;;2.97;2.67;;;;;;;;;;5005437;28;20211;-64
2022/05/10 11:42:15;;;;;;;2.90;2.70;;;;;;;;;;5010271;28;20194;-64
2022/05/10 11:44:49;;;;;;;5.17;2.93;;;;;;;;;;5007879;28;20196;-64
2022/05/10 11:47:34;;;;;;;3.03;2.40;;;;;;;;;;5010645;28;20183;-65
2022/05/10 11:50:14;;;;;;;2.87;2.43;;;;;;;;;;5003790;28;20533;-64
2022/05/10 11:53:04;;;;;;;5.37;2.53;;;;;;;;;;5008348;28;20698;-63
2022/05/10 11:55:47;;;;;;;5.63;3.00;;;;;;;;;;5012608;28;20194;-64
2022/05/10 11:58:15;;;;;;;7.57;2.83;;;;;;;;;;5005064;28;20203;-65
2022/05/10 12:00:50;;;;;;;5.47;3.20;;;;;;;;;;5011313;28;20198;-63
2022/05/10 12:03:36;;;;;;;4.20;3.27;;;;;;;;;;5022218;28;20252;-63
2022/05/10 12:06:23;;;;;;;3.30;3.00;;;;;;;;;;5013059;28;20253;-63
2022/05/10 12:08:57;;;;;;;4.90;3.77;;;;;;;;;;4999616;28;20212;-64
2022/05/10 12:11:37;;;;;;;7.80;3.33;;;;;;;;;;5014037;28;20260;-64
2022/05/10 12:22:59;;;;;;;5.37;3.13;;;;;;;;;;5009575;28;20203;-64
2022/05/10 12:26:06;;;;;;;5.77;2.87;;;;;;;;;;4989607;28;20255;-64
2022/05/10 12:28:39;;;;;;;5.93;2.80;;;;;;;;;;4963956;28;20210;-64
2022/05/10 12:31:23;;;;;;;4.13;3.37;;;;;;;;;;5002538;28;20227;-64
2022/05/10 12:34:01;;;;;;;5.23;2.73;;;;;;;;;;5007371;28;20684;-64
2022/05/10 12:36:31;;;;;;;4.30;2.90;;;;;;;;;;5013351;28;20555;-64
2022/05/10 12:39:16;;;;;;;3.50;3.20;;;;;;;;;;5004588;28;20215;-63
2022/05/10 12:41:49;;;;;;;4.33;2.77;;;;;;;;;;5000392;28;20262;-63
2022/05/10 12:44:16;;;;;;;4.07;2.60;;;;;;;;;;5003533;28;20203;-63
2022/05/10 12:46:52;;;;;;;4.83;2.70;;;;;;;;;;5011944;28;20799;-64
2022/05/10 12:49:26;;;;;;;4.90;2.97;;;;;;;;;;5009336;28;20195;-64
2022/05/10 12:52:01;;;;;;;5.03;2.87;;;;;;;;;;5004787;28;20224;-64
2022/05/10 12:54:45;;;;;;;5.17;3.03;;;;;;;;;;5007035;28;20275;-64
2022/05/10 12:57:27;;;;;;;11.93;3.50;;;;;;;;;;5006378;28;20180;-65
2022/05/10 13:00:12;;;;;;;11.07;2.97;;;;;;;;;;5006700;28;20203;-66
2022/05/10 13:02:42;;;;;;;6.07;3.20;;;;;;;;;;4999470;28;20216;-63
2022/05/10 13:05:15;;;;;;;2.90;2.57;;;;;;;;;;5008176;28;20446;-63
2022/05/10 13:07:45;;;;;;;4.50;3.03;;;;;;;;;;5006693;28;20293;-63
2022/05/10 13:10:16;;;;;;;5.57;3.13;;;;;;;;;;5004908;28;20192;-65
2022/05/10 13:12:49;;;;;;;5.60;2.63;;;;;;;;;;5011180;28;20212;-64
2022/05/10 13:15:18;;;;;;;3.20;2.40;;;;;;;;;;5004531;28;20200;-65
2022/05/10 13:17:54;;;;;;;3.50;2.70;;;;;;;;;;5006812;28;20199;-65
2022/05/10 13:20:23;;;;;;;4.07;2.70;;;;;;;;;;5003944;28;20191;-64
2022/05/10 13:22:58;;;;;;;3.93;2.63;;;;;;;;;;5007961;28;20204;-63
2022/05/10 13:25:32;;;;;;;3.10;2.50;;;;;;;;;;5013551;28;20763;-65
2022/05/10 13:28:16;;;;;;;4.30;2.90;;;;;;;;;;5008178;28;20219;-64
2022/05/10 13:30:46;;;;;;;5.90;2.97;;;;;;;;;;5005234;28;20254;-63
2022/05/10 13:33:21;;;;;;;3.20;2.47;;;;;;;;;;5008667;28;20207;-64
2022/05/10 13:35:52;;;;;;;4.50;2.60;;;;;;;;;;5014986;28;20613;-65
2022/05/10 13:38:42;;;;;;;6.53;2.50;;;;;;;;;;4992858;28;20269;-66
2022/05/10 13:41:35;;;;;;;3.67;2.53;;;;;;;;;;5008963;28;20192;-63
2022/05/10 13:44:28;;;;;;;3.00;2.70;;;;;;;;;;5005511;28;20199;-64
2022/05/10 13:47:17;;;;;;;3.60;2.50;;;;;;;;;;5007846;28;20290;-63
2022/05/10 13:49:51;;;;;;;4.37;2.60;;;;;;;;;;5003136;28;20191;-64
2022/05/10 13:52:43;;;;;;;3.17;2.60;;;;;;;;;;5007582;28;20257;-63
2022/05/10 13:55:17;;;;;;;4.77;2.63;;;;;;;;;;4993158;28;20292;-66
2022/05/10 13:57:54;;;;;;;4.10;2.37;;;;;;;;;;4992032;28;20191;-66
2022/05/10 14:00:26;;;;;;;4.40;2.43;;;;;;;;;;4986807;28;20203;-63
2022/05/10 14:02:54;;;;;;;2.87;2.67;;;;;;;;;;5014446;28;20215;-63
2022/05/10 14:05:23;;;;;;;3.50;2.53;;;;;;;;;;4989026;28;20203;-65
2022/05/10 14:08:01;;;;;;;4.63;2.50;;;;;;;;;;4990473;28;20329;-65
2022/05/10 14:10:39;;;;;;;2.83;2.53;;;;;;;;;;5005293;28;20227;-63
2022/05/10 14:13:11;;;;;;;2.87;2.67;;;;;;;;;;5007798;28;20245;-64
2022/05/10 14:15:46;;;;;;;3.17;2.57;;;;;;;;;;4987159;28;20278;-64
2022/05/10 14:18:24;;;;;;;4.67;2.60;;;;;;;;;;4993168;28;20204;-65
2022/05/10 14:20:56;;;;;;;4.10;2.30;;;;;;;;;;5011693;28;20203;-65
2022/05/10 14:23:24;;;;;;;3.03;2.63;;;;;;;;;;5010567;28;20506;-65
2022/05/10 14:26:00;;;;;;;4.37;2.47;;;;;;;;;;4995016;28;20219;-62
2022/05/10 14:28:33;;;;;;;3.07;2.30;;;;;;;;;;5005912;28;20207;-62
2022/05/10 14:31:19;;;;;;;2.50;2.30;;;;;;;;;;5020404;28;20194;-63
2022/05/10 14:33:56;;;;;;;3.60;2.60;;;;;;;;;;5004461;28;20219;-65
2022/05/10 14:36:28;;;;;;;2.53;2.33;;;;;;;;;;5007254;28;20199;-63
2022/05/10 14:38:58;;;;;;;3.20;2.47;;;;;;;;;;5004386;28;20207;-64
2022/05/10 14:41:48;;;;;;;3.73;2.67;;;;;;;;;;5003550;28;20527;-64
2022/05/10 14:44:15;;;;;;;3.03;2.50;;;;;;;;;;5003707;28;20218;-63
2022/05/10 14:46:51;;;;;;;4.13;2.67;;;;;;;;;;5015683;28;20304;-65
2022/05/10 14:49:38;;;;;;;3.83;2.60;;;;;;;;;;5012833;28;20793;-64
2022/05/10 14:52:22;;;;;;;2.93;2.53;;;;;;;;;;5003219;28;20223;-66
2022/05/10 14:54:50;;;;;;;5.03;2.50;;;;;;;;;;5005676;28;20637;-66
2022/05/10 14:57:25;;;;;;;4.53;2.60;;;;;;;;;;5009185;28;20208;-66
2022/05/10 14:59:56;;;;;;;2.67;2.47;;;;;;;;;;5006340;28;20868;-66
2022/05/10 15:02:34;;;;;;;4.23;2.70;;;;;;;;;;5002577;28;20270;-65
2022/05/10 15:05:09;;;;;;;2.60;2.30;;;;;;;;;;5008837;28;20203;-65
2022/05/10 15:07:36;;;;;;;3.27;2.40;;;;;;;;;;5005301;28;20235;-62
2022/05/10 15:10:04;;;;;;;6.63;2.50;;;;;;;;;;5002583;28;20246;-64
2022/05/10 15:15:21;;;;;;;2.67;2.47;;;;;;;;;;5002767;28;20333;-65
2022/05/10 15:20:38;;;;;;;4.35;2.90;;;;;;;;;;5003025;28;20549;-63
2022/05/10 15:23:06;;;;;;;4.47;2.70;;;;;;;;;;5007696;28;20207;-62
2022/05/10 15:25:33;;;;;;;3.97;3.00;;;;;;;;;;5011384;28;20663;-62
2022/05/10 15:28:02;;;;;;;3.07;2.70;;;;;;;;;;5004804;28;20203;-62
2022/05/10 15:30:31;;;;;;;4.43;3.00;;;;;;;;;;5008938;28;20258;-62
2022/05/10 15:33:02;;;;;;;5.57;3.57;;;;;;;;;;5009039;28;20219;-61
2022/05/10 15:35:31;;;;;;;5.73;3.50;;;;;;;;;;4991250;28;20191;-62
2022/05/10 15:38:00;;;;;;;5.53;3.83;;;;;;;;;;5004935;28;20203;-61
2022/05/10 15:40:30;;;;;;;4.30;3.87;;;;;;;;;;5008555;28;20645;-63
2022/05/10 15:42:57;;;;;;;4.03;3.70;;;;;;;;;;5009494;28;20204;-63
2022/05/10 15:45:24;;;;;;;4.90;4.00;;;;;;;;;;5023691;28;20196;-63
2022/05/10 15:47:52;;;;;;;7.90;3.93;;;;;;;;;;5008882;28;20589;-63
2022/05/10 15:50:23;;;;;;;4.87;3.73;;;;;;;;;;5003963;28;20211;-62